createdAt,value
2022-12-20T00:03:53.242Z,-2.27
2022-12-20T00:09:00.501Z,-2.21
2022-12-20T00:14:06.552Z,-2.10
2022-12-20T00:19:13.051Z,-2.04
2022-12-20T00:24:25.673Z,-2.03
2022-12-20T00:29:32.265Z,-2.01
2022-12-20T00:34:38.299Z,-1.97
2022-12-20T00:39:43.949Z,-1.94
2022-12-20T00:44:50.524Z,-1.93
2022-12-20T00:49:56.223Z,-1.88
2022-12-20T00:55:01.916Z,-1.84
2022-12-20T01:00:09.516Z,-1.86
2022-12-20T01:05:15.202Z,-1.82
2022-12-20T01:10:21.154Z,-1.77
2022-12-20T01:15:27.466Z,-1.73
2022-12-20T01:20:33.237Z,-1.71
2022-12-20T01:25:38.894Z,-1.68
2022-12-20T01:30:45.101Z,-1.64
2022-12-20T01:36:02.070Z,-1.65
2022-12-20T01:41:08.029Z,-1.59
2022-12-20T01:46:14.503Z,-1.53
2022-12-20T01:51:22.798Z,-1.51
2022-12-20T01:56:28.670Z,-1.46
2022-12-20T02:01:35.801Z,-1.36
2022-12-20T02:06:42.337Z,-1.31
2022-12-20T02:12:08.723Z,-1.28
2022-12-20T02:17:26.550Z,-1.20
2022-12-20T02:22:46.276Z,-1.12
2022-12-20T02:27:59.837Z,-1.04
2022-12-20T02:33:08.671Z,-0.94
2022-12-20T02:38:30.458Z,-0.87
2022-12-20T02:44:00.560Z,-0.83
2022-12-20T02:49:14.174Z,-0.76
2022-12-20T02:54:21.218Z,-0.67
2022-12-20T02:59:31.930Z,-0.62
2022-12-20T03:04:41.108Z,-0.59
2022-12-20T03:09:47.324Z,-0.53
2022-12-20T03:14:53.726Z,-0.50
2022-12-20T03:19:59.465Z,-0.48
2022-12-20T03:25:06.408Z,-0.43
2022-12-20T03:30:14.317Z,-0.40
2022-12-20T03:35:20.164Z,-0.40
2022-12-20T03:40:25.967Z,-0.35
2022-12-20T03:45:32.011Z,-0.29
2022-12-20T03:50:38.186Z,-0.27
2022-12-20T03:55:45.583Z,-0.25
2022-12-20T04:00:52.758Z,-0.19
2022-12-20T04:06:25.244Z,-0.15
2022-12-20T04:11:31.307Z,-0.15
2022-12-20T04:16:49.630Z,-0.12
2022-12-20T04:22:04.646Z,-0.09
2022-12-20T04:27:19.900Z,-0.10
2022-12-20T04:32:25.973Z,-0.11
2022-12-20T04:37:32.417Z,-0.07
2022-12-20T04:42:38.984Z,-0.07
2022-12-20T04:47:44.729Z,-0.08
2022-12-20T04:53:30.157Z,-0.06
2022-12-20T04:58:36.429Z,-0.04
2022-12-20T05:03:45.196Z,-0.05
2022-12-20T05:08:52.826Z,-0.03
2022-12-20T05:13:58.743Z,-0.00
2022-12-20T05:19:05.007Z,-0.04
2022-12-20T05:24:34.453Z,-0.05
2022-12-20T05:29:49.183Z,-0.04
2022-12-20T05:34:54.887Z,-0.04
2022-12-20T05:40:01.517Z,0.00
2022-12-20T05:45:08.945Z,0.04
2022-12-20T05:50:22.475Z,0.04
2022-12-20T05:55:50.116Z,0.08
2022-12-20T06:00:57.035Z,0.11
2022-12-20T06:06:08.646Z,0.13
2022-12-20T06:11:18.223Z,0.17
2022-12-20T06:16:29.394Z,0.21
2022-12-20T06:21:36.402Z,0.20
2022-12-20T06:26:42.672Z,0.20
2022-12-20T06:31:48.535Z,0.22
2022-12-20T06:36:54.719Z,0.22
2022-12-20T06:42:05.229Z,0.18
2022-12-20T06:47:12.665Z,0.19
2022-12-20T06:52:18.497Z,0.23
2022-12-20T06:57:27.935Z,0.26
2022-12-20T07:02:34.789Z,0.26
2022-12-20T07:07:45.172Z,0.27
2022-12-20T07:12:52.044Z,0.36
2022-12-20T07:17:57.946Z,0.43
2022-12-20T07:23:03.657Z,0.44
2022-12-20T07:28:09.688Z,0.46
2022-12-20T07:33:15.512Z,0.54
2022-12-20T07:38:21.322Z,0.63
2022-12-20T07:43:27.637Z,0.67
2022-12-20T07:48:34.267Z,0.69
2022-12-20T07:53:45.780Z,0.75
2022-12-20T07:58:58.503Z,0.83
2022-12-20T08:04:11.437Z,0.89
2022-12-20T08:09:17.816Z,0.92
2022-12-20T08:14:23.620Z,0.92
2022-12-20T08:19:32.537Z,0.96
2022-12-20T08:24:39.681Z,0.96
2022-12-20T08:29:45.531Z,0.96
2022-12-20T08:34:51.954Z,1.05
2022-12-20T08:39:57.613Z,1.14
2022-12-20T08:45:03.557Z,1.21
2022-12-20T08:50:10.821Z,1.33
2022-12-20T08:55:16.819Z,1.47
2022-12-20T09:00:23.123Z,1.54
2022-12-20T09:05:29.050Z,1.61
2022-12-20T09:10:34.771Z,1.73
2022-12-20T09:15:40.709Z,1.93
2022-12-20T09:20:46.494Z,2.17
2022-12-20T09:25:54.146Z,2.46
2022-12-20T09:31:01.588Z,2.79
2022-12-20T09:36:14.208Z,3.24
2022-12-20T09:41:32.935Z,3.62
2022-12-20T09:46:40.971Z,3.80
2022-12-20T09:52:07.551Z,3.90
2022-12-20T09:57:25.293Z,3.97
2022-12-20T10:08:05.768Z,4.23
2022-12-20T10:13:32.006Z,4.27
2022-12-20T10:18:53.409Z,4.31
2022-12-20T10:24:03.536Z,4.39
2022-12-20T10:29:10.280Z,4.43
2022-12-20T10:34:15.907Z,4.44
2022-12-20T10:39:42.760Z,4.51
2022-12-20T10:44:48.667Z,4.48
2022-12-20T10:50:13.365Z,4.47
2022-12-20T10:55:42.843Z,4.49
2022-12-20T11:00:51.135Z,4.44
2022-12-20T11:05:59.660Z,4.36
2022-12-20T11:11:19.259Z,4.34
2022-12-20T11:16:38.069Z,4.31
2022-12-20T11:21:58.536Z,4.11
2022-12-20T11:27:20.556Z,3.85
2022-12-20T11:32:36.596Z,3.69
2022-12-20T11:37:50.965Z,3.69
2022-12-20T11:43:25.557Z,3.74
2022-12-20T11:48:47.669Z,3.79
2022-12-20T11:54:00.201Z,3.73
2022-12-20T11:59:13.176Z,3.63
2022-12-20T12:04:25.223Z,3.58
2022-12-20T12:09:36.654Z,3.64
2022-12-20T12:14:53.220Z,3.78
2022-12-20T12:20:10.499Z,3.96
2022-12-20T12:25:19.208Z,4.23
2022-12-20T12:30:26.864Z,4.48
2022-12-20T12:36:02.449Z,4.62
2022-12-20T12:41:34.451Z,4.70
2022-12-20T12:46:40.297Z,4.71
2022-12-20T12:51:55.744Z,4.69
2022-12-20T12:57:07.415Z,4.57
2022-12-20T13:02:35.924Z,4.42
2022-12-20T13:07:44.950Z,4.29
2022-12-20T13:12:59.035Z,4.18
2022-12-20T13:18:23.793Z,4.00
2022-12-20T13:23:30.349Z,3.80
2022-12-20T13:28:52.884Z,3.61
2022-12-20T13:34:02.174Z,3.41
2022-12-20T13:39:33.427Z,3.26
2022-12-20T13:44:41.138Z,3.14
2022-12-20T13:49:47.522Z,3.07
2022-12-20T13:54:57.007Z,2.98
2022-12-20T14:00:07.826Z,2.90
2022-12-20T14:05:21.010Z,2.78
2022-12-20T14:10:29.497Z,2.65
2022-12-20T14:15:38.452Z,2.50
2022-12-20T14:20:44.823Z,2.43
2022-12-20T14:25:56.099Z,2.40
2022-12-20T14:31:03.375Z,2.38
2022-12-20T14:36:20.615Z,2.34
2022-12-20T14:41:36.018Z,2.26
2022-12-20T14:46:49.051Z,2.22
2022-12-20T14:52:12.640Z,2.22
2022-12-20T14:57:26.945Z,2.24
2022-12-20T15:02:40.285Z,2.23
2022-12-20T15:07:46.316Z,2.15
2022-12-20T15:12:52.325Z,2.06
2022-12-20T15:17:57.982Z,1.94
2022-12-20T15:23:04.120Z,1.89
2022-12-20T15:28:15.621Z,1.88
2022-12-20T15:33:23.599Z,1.87
2022-12-20T15:38:54.552Z,1.81
2022-12-20T15:43:59.940Z,1.72
2022-12-20T15:49:05.887Z,1.66
2022-12-20T15:54:21.809Z,1.67
2022-12-20T16:04:53.807Z,1.75
2022-12-20T16:09:59.512Z,1.75
2022-12-20T16:15:05.916Z,1.74
2022-12-20T16:20:13.400Z,1.77
2022-12-20T16:25:27.482Z,1.80
2022-12-20T16:30:33.955Z,1.79
2022-12-20T16:35:39.939Z,1.80
2022-12-20T16:40:45.577Z,1.81
2022-12-20T16:45:51.187Z,1.80
2022-12-20T16:50:57.001Z,1.76
2022-12-20T16:56:02.675Z,1.77
2022-12-20T17:01:16.753Z,1.83
2022-12-20T17:06:22.985Z,1.86
2022-12-20T17:11:32.066Z,1.86
2022-12-20T17:16:38.027Z,1.83
2022-12-20T17:27:10.706Z,1.85
2022-12-20T17:32:21.994Z,1.93
2022-12-20T17:37:28.067Z,1.96
2022-12-20T17:42:33.748Z,1.93
2022-12-20T17:47:39.475Z,1.89
2022-12-20T17:52:45.989Z,1.90
2022-12-20T17:57:52.940Z,1.93
2022-12-20T18:02:58.784Z,1.94
2022-12-20T18:08:05.325Z,1.92
2022-12-20T18:13:11.605Z,1.88
2022-12-20T18:18:17.333Z,1.92
2022-12-20T18:23:23.389Z,1.96
2022-12-20T18:28:29.167Z,1.94
2022-12-20T18:33:35.153Z,1.93
2022-12-20T18:38:43.840Z,1.97
2022-12-20T18:43:50.358Z,2.02
2022-12-20T18:48:57.967Z,2.02
2022-12-20T18:54:05.876Z,1.99
2022-12-20T18:59:12.947Z,1.99
2022-12-20T19:04:24.211Z,2.01
2022-12-20T19:09:31.018Z,1.99
2022-12-20T19:14:36.769Z,1.95
2022-12-20T19:19:42.496Z,1.92
2022-12-20T19:24:48.257Z,1.94
2022-12-20T19:29:54.658Z,1.98
2022-12-20T19:35:11.188Z,2.01
2022-12-20T19:40:26.334Z,2.00
2022-12-20T19:45:32.120Z,1.94
2022-12-20T19:50:37.944Z,1.88
2022-12-20T19:55:51.496Z,1.88
2022-12-20T20:00:57.632Z,1.91
2022-12-20T20:06:04.732Z,1.94
2022-12-20T20:11:12.341Z,1.93
2022-12-20T20:16:22.160Z,1.90
2022-12-20T20:21:28.697Z,1.91
2022-12-20T20:26:36.340Z,1.95
2022-12-20T20:31:42.361Z,1.95
2022-12-20T20:36:48.349Z,1.94
2022-12-20T20:41:54.025Z,1.94
2022-12-20T20:47:00.095Z,1.97
2022-12-20T20:52:06.174Z,1.97
2022-12-20T20:57:12.049Z,1.96
2022-12-20T21:02:21.039Z,1.95
2022-12-20T21:07:27.177Z,1.99
2022-12-20T21:12:33.135Z,2.02
2022-12-20T21:17:39.211Z,2.00
2022-12-20T21:22:45.221Z,1.97
2022-12-20T21:27:51.154Z,1.99
2022-12-20T21:32:56.941Z,2.01
2022-12-20T21:38:03.549Z,2.02
2022-12-20T21:43:09.410Z,2.00
2022-12-20T21:48:15.204Z,1.96
2022-12-20T21:53:20.920Z,1.92
2022-12-20T21:58:28.518Z,1.86
2022-12-20T22:03:34.967Z,1.86
2022-12-20T22:08:40.767Z,1.92
2022-12-20T22:13:47.447Z,1.96
2022-12-20T22:18:54.705Z,1.93
2022-12-20T22:24:01.223Z,1.84
2022-12-20T22:29:07.332Z,1.75
2022-12-20T22:34:13.313Z,1.67
2022-12-20T22:39:19.299Z,1.68
2022-12-20T22:44:25.066Z,1.73
2022-12-20T22:49:31.578Z,1.73
2022-12-20T22:54:37.248Z,1.71
2022-12-20T22:59:43.053Z,1.71
2022-12-20T23:04:48.847Z,1.76
2022-12-20T23:09:54.503Z,1.80
2022-12-20T23:15:18.888Z,1.79
2022-12-20T23:20:44.035Z,1.76
2022-12-20T23:25:49.891Z,1.69
2022-12-20T23:30:55.609Z,1.69
2022-12-20T23:36:03.233Z,1.71
2022-12-20T23:41:10.690Z,1.71
2022-12-20T23:46:19.221Z,1.69
2022-12-20T23:51:25.100Z,1.63
2022-12-20T23:56:30.949Z,1.61
